EWG9030 EDDL-EDDH
Flight info
| Callsign | EWG9030 |
|---|---|
| Flight time | 0h 42m |
| Altitude | 31000 |
| Route | MEVEL1Z MEVEL DCT MUBZI M105 RIBSO RIBSO7A |
| Aircraft | A320/M-SDE3FGHIRWY/LB1 |
Departure
| Time | 2026-05-05 13:50 |
|---|---|
| Airport | Düsseldorf Airport (EDDL) |
Arrival
| Time | 2026-05-05 14:32 |
|---|---|
| Airport | Hamburg Helmut Schmidt Airport (EDDH) |
| Time | Latitude | Longitude | Altitude | Speed | Heading |
|---|---|---|---|---|---|
| 2026-05-05 13:16 | 51.28155 | 6.76738 | 128 ft | 0 kts | 276° |
| 2026-05-05 13:16 | 51.28155 | 6.76728 | 127 ft | 0 kts | 276° |
| 2026-05-05 13:35 | 51.28154 | 6.76747 | 126 ft | 4 kts | 279° |
| 2026-05-05 13:36 | 51.28148 | 6.76788 | 127 ft | 4 kts | 294° |
| 2026-05-05 13:36 | 51.28134 | 6.76819 | 128 ft | 4 kts | 342° |
| 2026-05-05 13:36 | 51.28113 | 6.76816 | 128 ft | 4 kts | 18° |
| 2026-05-05 13:36 | 51.28096 | 6.76807 | 128 ft | 1 kts | 18° |
| 2026-05-05 13:42 | 51.28102 | 6.76810 | 130 ft | 6 kts | 18° |
| 2026-05-05 13:42 | 51.28165 | 6.76836 | 130 ft | 11 kts | 7° |
| 2026-05-05 13:42 | 51.28251 | 6.76853 | 130 ft | 13 kts | 7° |
| 2026-05-05 13:42 | 51.28344 | 6.76869 | 128 ft | 12 kts | 3° |
| 2026-05-05 13:43 | 51.28427 | 6.76802 | 124 ft | 12 kts | 323° |
| 2026-05-05 13:43 | 51.28444 | 6.76680 | 123 ft | 13 kts | 240° |
| 2026-05-05 13:43 | 51.28392 | 6.76571 | 123 ft | 12 kts | 233° |
| 2026-05-05 13:43 | 51.28346 | 6.76474 | 123 ft | 10 kts | 233° |
| 2026-05-05 13:44 | 51.28308 | 6.76393 | 126 ft | 8 kts | 233° |
| 2026-05-05 13:44 | 51.28277 | 6.76330 | 122 ft | 6 kts | 232° |
| 2026-05-05 13:44 | 51.28252 | 6.76276 | 125 ft | 6 kts | 232° |
| 2026-05-05 13:44 | 51.28227 | 6.76226 | 127 ft | 6 kts | 232° |
| 2026-05-05 13:45 | 51.28197 | 6.76162 | 125 ft | 9 kts | 232° |
| 2026-05-05 13:45 | 51.28137 | 6.76035 | 126 ft | 20 kts | 233° |
| 2026-05-05 13:45 | 51.28037 | 6.75823 | 128 ft | 22 kts | 232° |
| 2026-05-05 13:45 | 51.27958 | 6.75665 | 126 ft | 13 kts | 229° |
| 2026-05-05 13:46 | 51.27949 | 6.75575 | 129 ft | 8 kts | 299° |
| 2026-05-05 13:46 | 51.27990 | 6.75530 | 125 ft | 5 kts | 333° |
| 2026-05-05 13:48 | 51.27992 | 6.75529 | 124 ft | 1 kts | 333° |
| 2026-05-05 13:48 | 51.28013 | 6.75514 | 125 ft | 9 kts | 338° |
| 2026-05-05 13:49 | 51.28114 | 6.75531 | 122 ft | 19 kts | 37° |
| 2026-05-05 13:49 | 51.28235 | 6.75774 | 127 ft | 53 kts | 53° |
| 2026-05-05 13:49 | 51.28609 | 6.76555 | 127 ft | 120 kts | 52° |
| 2026-05-05 13:49 | 51.29218 | 6.77835 | 218 ft | 161 kts | 47° |
| 2026-05-05 13:50 | 51.29855 | 6.79227 | 1033 ft | 152 kts | 50° |
| 2026-05-05 13:50 | 51.30495 | 6.80609 | 1712 ft | 160 kts | 51° |
| 2026-05-05 13:50 | 51.31219 | 6.82121 | 2070 ft | 182 kts | 51° |
| 2026-05-05 13:50 | 51.32042 | 6.83835 | 2394 ft | 207 kts | 51° |
| 2026-05-05 13:51 | 51.32974 | 6.85778 | 2788 ft | 232 kts | 52° |
| 2026-05-05 13:51 | 51.33992 | 6.87954 | 3279 ft | 255 kts | 53° |
| 2026-05-05 13:51 | 51.35237 | 6.90028 | 4035 ft | 265 kts | 32° |
| 2026-05-05 13:51 | 51.36991 | 6.90952 | 4880 ft | 271 kts | 5° |
| 2026-05-05 13:52 | 51.38887 | 6.91290 | 5764 ft | 276 kts | 8° |
| 2026-05-05 13:52 | 51.40783 | 6.91774 | 6597 ft | 283 kts | 9° |
| 2026-05-05 13:52 | 51.42743 | 6.92342 | 7400 ft | 290 kts | 10° |
| 2026-05-05 13:52 | 51.44739 | 6.92931 | 8278 ft | 293 kts | 11° |
| 2026-05-05 13:53 | 51.46762 | 6.93518 | 9182 ft | 297 kts | 10° |
| 2026-05-05 13:53 | 51.48818 | 6.94076 | 9984 ft | 303 kts | 6° |
| 2026-05-05 13:53 | 51.50948 | 6.94054 | 10565 ft | 316 kts | 352° |
| 2026-05-05 13:53 | 51.53200 | 6.93454 | 10861 ft | 339 kts | 349° |
| 2026-05-05 13:54 | 51.55573 | 6.92775 | 11399 ft | 350 kts | 349° |
| 2026-05-05 13:54 | 51.57965 | 6.92084 | 12119 ft | 356 kts | 349° |
| 2026-05-05 13:54 | 51.60422 | 6.91378 | 12895 ft | 360 kts | 349° |
| 2026-05-05 13:54 | 51.62891 | 6.90672 | 13805 ft | 359 kts | 350° |
| 2026-05-05 13:55 | 51.65371 | 6.90040 | 14512 ft | 362 kts | 356° |
| 2026-05-05 13:55 | 51.67899 | 6.90200 | 15115 ft | 367 kts | 10° |
| 2026-05-05 13:55 | 51.70351 | 6.91385 | 15749 ft | 370 kts | 25° |
| 2026-05-05 13:55 | 51.72565 | 6.93539 | 16357 ft | 374 kts | 40° |
| 2026-05-05 13:56 | 51.74393 | 6.96555 | 16945 ft | 377 kts | 54° |
| 2026-05-05 13:56 | 51.75933 | 6.99918 | 17569 ft | 380 kts | 55° |
| 2026-05-05 13:56 | 51.77513 | 7.03387 | 18172 ft | 385 kts | 55° |
| 2026-05-05 13:56 | 51.79082 | 7.06839 | 18716 ft | 388 kts | 55° |
| 2026-05-05 13:57 | 51.80689 | 7.10380 | 19232 ft | 392 kts | 55° |
| 2026-05-05 13:57 | 51.82307 | 7.13952 | 19794 ft | 395 kts | 55° |
| 2026-05-05 13:57 | 51.83945 | 7.17549 | 20316 ft | 399 kts | 53° |
| 2026-05-05 13:57 | 51.85836 | 7.20854 | 20863 ft | 402 kts | 43° |
| 2026-05-05 13:58 | 51.88074 | 7.23615 | 21385 ft | 407 kts | 33° |
| 2026-05-05 13:58 | 51.90472 | 7.26066 | 21915 ft | 410 kts | 33° |
| 2026-05-05 13:58 | 51.92899 | 7.28545 | 22424 ft | 413 kts | 33° |
| 2026-05-05 13:58 | 51.95339 | 7.31041 | 22940 ft | 416 kts | 33° |
| 2026-05-05 13:59 | 52.00239 | 7.36065 | 23823 ft | 422 kts | 33° |
| 2026-05-05 13:59 | 52.02738 | 7.38639 | 24183 ft | 426 kts | 33° |
| 2026-05-05 14:00 | 52.07785 | 7.43850 | 24939 ft | 433 kts | 32° |
| 2026-05-05 14:00 | 52.09474 | 7.45598 | 25176 ft | 435 kts | 32° |
| 2026-05-05 14:00 | 52.12918 | 7.49175 | 25669 ft | 440 kts | 32° |
| 2026-05-05 14:00 | 52.15505 | 7.51861 | 26032 ft | 443 kts | 32° |
| 2026-05-05 14:01 | 52.18109 | 7.54565 | 26399 ft | 445 kts | 32° |
| 2026-05-05 14:01 | 52.20697 | 7.57257 | 26759 ft | 448 kts | 32° |
| 2026-05-05 14:01 | 52.23342 | 7.60008 | 27117 ft | 451 kts | 32° |
| 2026-05-05 14:01 | 52.25998 | 7.62772 | 27458 ft | 454 kts | 32° |
| 2026-05-05 14:02 | 52.28677 | 7.65567 | 27806 ft | 458 kts | 32° |
| 2026-05-05 14:02 | 52.31370 | 7.68381 | 27891 ft | 458 kts | 32° |
| 2026-05-05 14:02 | 52.34023 | 7.71159 | 27900 ft | 448 kts | 32° |
| 2026-05-05 14:02 | 52.36635 | 7.73902 | 27900 ft | 444 kts | 32° |
| 2026-05-05 14:03 | 52.39202 | 7.76602 | 27901 ft | 443 kts | 32° |
| 2026-05-05 14:03 | 52.41795 | 7.79335 | 27900 ft | 443 kts | 32° |
| 2026-05-05 14:03 | 52.44386 | 7.82067 | 27903 ft | 443 kts | 32° |
| 2026-05-05 14:03 | 52.46974 | 7.84796 | 27908 ft | 442 kts | 32° |
| 2026-05-05 14:04 | 52.49569 | 7.87531 | 27908 ft | 442 kts | 32° |
| 2026-05-05 14:04 | 52.52164 | 7.90275 | 27916 ft | 442 kts | 31° |
| 2026-05-05 14:04 | 52.54746 | 7.93014 | 27907 ft | 442 kts | 31° |
| 2026-05-05 14:04 | 52.56468 | 7.94846 | 27907 ft | 442 kts | 31° |
| 2026-05-05 14:05 | 52.59888 | 7.98488 | 27908 ft | 442 kts | 31° |
| 2026-05-05 14:05 | 52.62471 | 8.01237 | 27906 ft | 442 kts | 31° |
| 2026-05-05 14:05 | 52.65054 | 8.03985 | 27902 ft | 442 kts | 31° |
| 2026-05-05 14:05 | 52.66806 | 8.05851 | 27895 ft | 442 kts | 31° |
| 2026-05-05 14:06 | 52.69392 | 8.08610 | 27894 ft | 443 kts | 31° |
| 2026-05-05 14:06 | 52.71943 | 8.11338 | 27898 ft | 443 kts | 31° |
| 2026-05-05 14:06 | 52.74531 | 8.14106 | 27904 ft | 443 kts | 31° |
| 2026-05-05 14:06 | 52.77123 | 8.16883 | 27903 ft | 443 kts | 31° |
| 2026-05-05 14:07 | 52.79712 | 8.19664 | 27910 ft | 443 kts | 31° |
| 2026-05-05 14:07 | 52.82296 | 8.22445 | 27907 ft | 443 kts | 31° |
| 2026-05-05 14:07 | 52.84881 | 8.25234 | 27909 ft | 443 kts | 31° |
| 2026-05-05 14:07 | 52.87463 | 8.28024 | 27911 ft | 443 kts | 31° |
| 2026-05-05 14:08 | 52.90049 | 8.30817 | 27906 ft | 443 kts | 31° |
| 2026-05-05 14:08 | 52.92629 | 8.33606 | 27722 ft | 440 kts | 31° |
| 2026-05-05 14:08 | 52.95146 | 8.36334 | 27467 ft | 437 kts | 31° |
| 2026-05-05 14:08 | 52.97691 | 8.39094 | 27219 ft | 435 kts | 31° |
| 2026-05-05 14:09 | 53.00210 | 8.41831 | 27048 ft | 433 kts | 31° |
| 2026-05-05 14:09 | 53.02729 | 8.44573 | 26935 ft | 432 kts | 31° |
| 2026-05-05 14:09 | 53.05242 | 8.47313 | 26845 ft | 431 kts | 31° |
| 2026-05-05 14:09 | 53.07749 | 8.50054 | 26698 ft | 430 kts | 31° |
| 2026-05-05 14:10 | 53.10246 | 8.52788 | 26517 ft | 428 kts | 31° |
| 2026-05-05 14:10 | 53.12725 | 8.55507 | 25990 ft | 424 kts | 31° |
| 2026-05-05 14:10 | 53.15149 | 8.58167 | 25487 ft | 420 kts | 31° |
| 2026-05-05 14:10 | 53.17583 | 8.60835 | 24992 ft | 417 kts | 31° |
| 2026-05-05 14:11 | 53.20000 | 8.63484 | 24497 ft | 413 kts | 31° |
| 2026-05-05 14:11 | 53.22391 | 8.66110 | 24011 ft | 410 kts | 31° |
| 2026-05-05 14:11 | 53.24766 | 8.68727 | 23516 ft | 407 kts | 31° |
| 2026-05-05 14:11 | 53.27121 | 8.71325 | 22972 ft | 404 kts | 31° |
| 2026-05-05 14:12 | 53.29460 | 8.73909 | 22473 ft | 400 kts | 31° |
| 2026-05-05 14:12 | 53.31769 | 8.76463 | 21986 ft | 396 kts | 31° |
| 2026-05-05 14:12 | 53.34054 | 8.78998 | 21495 ft | 393 kts | 31° |
| 2026-05-05 14:12 | 53.36323 | 8.81520 | 20990 ft | 390 kts | 31° |
| 2026-05-05 14:13 | 53.38552 | 8.83998 | 20513 ft | 388 kts | 31° |
| 2026-05-05 14:13 | 53.40796 | 8.86493 | 20007 ft | 386 kts | 31° |
| 2026-05-05 14:13 | 53.43035 | 8.88983 | 19507 ft | 385 kts | 31° |
| 2026-05-05 14:13 | 53.45268 | 8.91468 | 19011 ft | 384 kts | 31° |
| 2026-05-05 14:14 | 53.47494 | 8.93951 | 18507 ft | 384 kts | 31° |
| 2026-05-05 14:14 | 53.49713 | 8.96434 | 17992 ft | 383 kts | 31° |
| 2026-05-05 14:14 | 53.51927 | 8.98913 | 17499 ft | 380 kts | 31° |
| 2026-05-05 14:14 | 53.54121 | 9.01375 | 17041 ft | 377 kts | 31° |
| 2026-05-05 14:15 | 53.56282 | 9.03867 | 16571 ft | 374 kts | 33° |
| 2026-05-05 14:15 | 53.58334 | 9.06308 | 16097 ft | 359 kts | 33° |
| 2026-05-05 14:15 | 53.60327 | 9.08724 | 15672 ft | 349 kts | 33° |
| 2026-05-05 14:15 | 53.62294 | 9.11115 | 15226 ft | 349 kts | 34° |
| 2026-05-05 14:16 | 53.64267 | 9.13505 | 14785 ft | 348 kts | 34° |
| 2026-05-05 14:16 | 53.66238 | 9.15885 | 14336 ft | 349 kts | 33° |
| 2026-05-05 14:16 | 53.68212 | 9.18262 | 13885 ft | 349 kts | 33° |
| 2026-05-05 14:16 | 53.70193 | 9.20643 | 13392 ft | 349 kts | 33° |
| 2026-05-05 14:17 | 53.72165 | 9.23014 | 12920 ft | 347 kts | 33° |
| 2026-05-05 14:17 | 53.74130 | 9.25379 | 12443 ft | 346 kts | 33° |
| 2026-05-05 14:17 | 53.76088 | 9.27741 | 11978 ft | 345 kts | 33° |
| 2026-05-05 14:17 | 53.77952 | 9.30285 | 11494 ft | 345 kts | 47° |
| 2026-05-05 14:18 | 53.79129 | 9.33797 | 11032 ft | 345 kts | 70° |
| 2026-05-05 14:18 | 53.79978 | 9.37584 | 10565 ft | 343 kts | 64° |
| 2026-05-05 14:18 | 53.81034 | 9.41160 | 10311 ft | 335 kts | 62° |
| 2026-05-05 14:18 | 53.82089 | 9.44635 | 10065 ft | 328 kts | 62° |
| 2026-05-05 14:19 | 53.83123 | 9.48027 | 9815 ft | 320 kts | 62° |
| 2026-05-05 14:19 | 53.84112 | 9.51327 | 9552 ft | 306 kts | 66° |
| 2026-05-05 14:19 | 53.84540 | 9.54740 | 9292 ft | 300 kts | 92° |
| 2026-05-05 14:19 | 53.84073 | 9.58116 | 9024 ft | 294 kts | 118° |
| 2026-05-05 14:20 | 53.82815 | 9.60769 | 8624 ft | 287 kts | 145° |
| 2026-05-05 14:20 | 53.81127 | 9.62536 | 8249 ft | 285 kts | 153° |
| 2026-05-05 14:20 | 53.79380 | 9.64126 | 7786 ft | 286 kts | 154° |
| 2026-05-05 14:20 | 53.77619 | 9.65693 | 7268 ft | 283 kts | 154° |
| 2026-05-05 14:21 | 53.75870 | 9.67235 | 6950 ft | 281 kts | 154° |
| 2026-05-05 14:21 | 53.74165 | 9.68732 | 6901 ft | 268 kts | 154° |
| 2026-05-05 14:21 | 53.72542 | 9.70156 | 6772 ft | 257 kts | 154° |
| 2026-05-05 14:21 | 53.70990 | 9.71519 | 6499 ft | 247 kts | 154° |
| 2026-05-05 14:22 | 53.69475 | 9.72862 | 6005 ft | 244 kts | 154° |
| 2026-05-05 14:22 | 53.67969 | 9.74186 | 5616 ft | 243 kts | 154° |
| 2026-05-05 14:22 | 53.66487 | 9.75465 | 5261 ft | 241 kts | 154° |
| 2026-05-05 14:22 | 53.64987 | 9.76703 | 4881 ft | 239 kts | 161° |
| 2026-05-05 14:23 | 53.63368 | 9.76986 | 4526 ft | 232 kts | 193° |
| 2026-05-05 14:23 | 53.61945 | 9.75756 | 4273 ft | 232 kts | 225° |
| 2026-05-05 14:23 | 53.60884 | 9.73701 | 4086 ft | 233 kts | 233° |
| 2026-05-05 14:23 | 53.59892 | 9.71516 | 3958 ft | 236 kts | 234° |
| 2026-05-05 14:24 | 53.58908 | 9.69302 | 3836 ft | 236 kts | 234° |
| 2026-05-05 14:24 | 53.57922 | 9.67079 | 3694 ft | 237 kts | 234° |
| 2026-05-05 14:24 | 53.56930 | 9.64850 | 3572 ft | 237 kts | 234° |
| 2026-05-05 14:24 | 53.55863 | 9.62795 | 3441 ft | 238 kts | 216° |
| 2026-05-05 14:25 | 53.54344 | 9.61793 | 3318 ft | 236 kts | 183° |
| 2026-05-05 14:25 | 53.52767 | 9.62295 | 3199 ft | 232 kts | 152° |
| 2026-05-05 14:25 | 53.51379 | 9.63666 | 3087 ft | 232 kts | 145° |
| 2026-05-05 14:25 | 53.50037 | 9.65145 | 3024 ft | 227 kts | 144° |
| 2026-05-05 14:26 | 53.48749 | 9.66550 | 3029 ft | 220 kts | 142° |
| 2026-05-05 14:26 | 53.47806 | 9.68458 | 3027 ft | 207 kts | 104° |
| 2026-05-05 14:26 | 53.47789 | 9.70731 | 3027 ft | 189 kts | 66° |
| 2026-05-05 14:26 | 53.48549 | 9.72337 | 3034 ft | 175 kts | 33° |
| 2026-05-05 14:27 | 53.49602 | 9.73307 | 3050 ft | 172 kts | 26° |
| 2026-05-05 14:27 | 53.50672 | 9.74172 | 3037 ft | 170 kts | 32° |
| 2026-05-05 14:27 | 53.51469 | 9.75615 | 3040 ft | 169 kts | 51° |
| 2026-05-05 14:27 | 53.52229 | 9.77116 | 3007 ft | 170 kts | 48° |
| 2026-05-05 14:28 | 53.52992 | 9.78611 | 2845 ft | 169 kts | 49° |
| 2026-05-05 14:28 | 53.53751 | 9.80121 | 2633 ft | 167 kts | 49° |
| 2026-05-05 14:28 | 53.54500 | 9.81620 | 2425 ft | 167 kts | 50° |
| 2026-05-05 14:28 | 53.55228 | 9.83080 | 2197 ft | 164 kts | 49° |
| 2026-05-05 14:29 | 53.55962 | 9.84555 | 1971 ft | 162 kts | 50° |
| 2026-05-05 14:29 | 53.56669 | 9.85977 | 1756 ft | 154 kts | 50° |
| 2026-05-05 14:29 | 53.57323 | 9.87293 | 1571 ft | 140 kts | 50° |
| 2026-05-05 14:29 | 53.57928 | 9.88511 | 1369 ft | 132 kts | 50° |
| 2026-05-05 14:30 | 53.58513 | 9.89690 | 1193 ft | 130 kts | 50° |
| 2026-05-05 14:30 | 53.59097 | 9.90866 | 962 ft | 131 kts | 51° |
| 2026-05-05 14:30 | 53.59679 | 9.92040 | 794 ft | 130 kts | 50° |
| 2026-05-05 14:30 | 53.60261 | 9.93215 | 576 ft | 129 kts | 51° |
| 2026-05-05 14:31 | 53.60835 | 9.94377 | 407 ft | 129 kts | 51° |
| 2026-05-05 14:31 | 53.61422 | 9.95546 | 274 ft | 131 kts | 51° |
| 2026-05-05 14:31 | 53.61996 | 9.96719 | 81 ft | 129 kts | 52° |
| 2026-05-05 14:31 | 53.62526 | 9.97800 | 41 ft | 103 kts | 50° |
| 2026-05-05 14:32 | 53.62875 | 9.98502 | 44 ft | 54 kts | 50° |
| 2026-05-05 14:32 | 53.63094 | 9.98940 | 45 ft | 44 kts | 50° |
| 2026-05-05 14:32 | 53.63264 | 9.99293 | 48 ft | 31 kts | 57° |
| 2026-05-05 14:32 | 53.63285 | 9.99579 | 44 ft | 22 kts | 99° |
| 2026-05-05 14:33 | 53.63278 | 9.99647 | 45 ft | 0 kts | 100° |
| 2026-05-05 14:33 | 53.63273 | 9.99688 | 45 ft | 9 kts | 107° |
| 2026-05-05 14:34 | 53.63229 | 9.99752 | 45 ft | 7 kts | 147° |
| 2026-05-05 14:34 | 53.63177 | 9.99802 | 45 ft | 12 kts | 153° |
| 2026-05-05 14:34 | 53.63097 | 9.99871 | 45 ft | 13 kts | 154° |
| 2026-05-05 14:34 | 53.63018 | 9.99938 | 45 ft | 13 kts | 153° |
| 2026-05-05 14:35 | 53.62961 | 9.99997 | 46 ft | 7 kts | 131° |
| 2026-05-05 14:35 | 53.62963 | 10.00061 | 46 ft | 6 kts | 58° |
| 2026-05-05 14:35 | 53.63003 | 10.00111 | 44 ft | 8 kts | 35° |
| 2026-05-05 14:35 | 53.63052 | 10.00166 | 45 ft | 9 kts | 32° |
| 2026-05-05 14:36 | 53.63109 | 10.00193 | 45 ft | 8 kts | 354° |
| 2026-05-05 14:36 | 53.63156 | 10.00211 | 43 ft | 6 kts | 41° |
| 2026-05-05 14:36 | 53.63166 | 10.00272 | 46 ft | 6 kts | 84° |
| 2026-05-05 14:36 | 53.63168 | 10.00344 | 46 ft | 6 kts | 87° |
| 2026-05-05 14:37 | 53.63169 | 10.00365 | 46 ft | 0 kts | 87° |